createdAt,value
2022-08-19T00:02:04.150Z,19.55
2022-08-19T00:04:36.127Z,19.58
2022-08-19T00:07:05.322Z,19.56
2022-08-19T00:09:32.609Z,19.55
2022-08-19T00:11:59.959Z,19.53
2022-08-19T00:14:28.506Z,19.53
2022-08-19T00:16:56.461Z,19.53
2022-08-19T00:19:24.922Z,19.51
2022-08-19T00:21:53.689Z,19.51
2022-08-19T00:24:21.245Z,19.50
2022-08-19T00:26:48.693Z,19.50
2022-08-19T00:29:19.794Z,19.49
2022-08-19T00:31:47.316Z,19.48
2022-08-19T00:34:15.964Z,19.47
2022-08-19T00:36:44.078Z,19.46
2022-08-19T00:39:12.219Z,19.45
2022-08-19T00:41:39.949Z,19.42
2022-08-19T00:44:27.107Z,19.40
2022-08-19T00:46:58.547Z,19.39
2022-08-19T00:49:42.154Z,19.39
2022-08-19T00:52:14.178Z,19.38
2022-08-19T00:54:42.938Z,19.37
2022-08-19T00:57:15.990Z,19.35
2022-08-19T01:00:02.013Z,19.36
2022-08-19T01:02:31.353Z,19.35
2022-08-19T01:04:58.940Z,19.35
2022-08-19T01:07:26.097Z,19.33
2022-08-19T01:09:53.463Z,19.33
2022-08-19T01:12:20.537Z,19.32
2022-08-19T01:14:48.951Z,19.30
2022-08-19T01:17:17.066Z,19.29
2022-08-19T01:19:47.956Z,19.30
2022-08-19T01:22:36.937Z,19.27
2022-08-19T01:25:06.232Z,19.27
2022-08-19T01:27:43.294Z,19.27
2022-08-19T01:30:14.993Z,19.25
2022-08-19T01:32:42.012Z,19.24
2022-08-19T01:35:09.882Z,19.24
2022-08-19T01:37:51.057Z,19.23
2022-08-19T01:40:18.167Z,19.21
2022-08-19T01:42:45.083Z,19.20
2022-08-19T01:45:12.051Z,19.19
2022-08-19T01:47:40.053Z,19.17
2022-08-19T01:50:08.939Z,19.16
2022-08-19T01:52:38.067Z,19.16
2022-08-19T01:55:07.928Z,19.15
2022-08-19T01:57:35.244Z,19.15
2022-08-19T02:00:06.229Z,19.15
2022-08-19T02:02:33.612Z,19.15
2022-08-19T02:05:00.629Z,19.13
2022-08-19T02:07:29.589Z,19.11
2022-08-19T02:09:56.827Z,19.10
2022-08-19T02:12:23.883Z,19.10
2022-08-19T02:14:50.873Z,19.11
2022-08-19T02:17:17.873Z,19.08
2022-08-19T02:19:44.937Z,19.07
2022-08-19T02:22:11.824Z,19.07
2022-08-19T02:24:39.986Z,19.07
2022-08-19T02:27:07.232Z,19.05
2022-08-19T02:29:34.250Z,19.06
2022-08-19T02:32:01.129Z,19.04
2022-08-19T02:34:28.241Z,19.04
2022-08-19T02:36:55.385Z,19.03
2022-08-19T02:39:23.838Z,19.02
2022-08-19T02:41:51.972Z,19.01
2022-08-19T02:44:29.772Z,19.01
2022-08-19T02:46:58.935Z,19.01
2022-08-19T02:49:25.868Z,19.00
2022-08-19T02:51:52.894Z,19.00
2022-08-19T02:54:20.428Z,18.98
2022-08-19T02:56:47.873Z,18.98
2022-08-19T02:59:15.046Z,18.97
2022-08-19T03:01:43.674Z,18.94
2022-08-19T03:04:15.497Z,18.93
2022-08-19T03:06:46.974Z,18.92
2022-08-19T03:09:15.162Z,18.92
2022-08-19T03:11:42.409Z,18.91
2022-08-19T03:14:10.793Z,18.90
2022-08-19T03:16:49.824Z,18.89
2022-08-19T03:19:20.137Z,18.88
2022-08-19T03:21:47.225Z,18.88
2022-08-19T03:24:15.533Z,18.87
2022-08-19T03:26:46.427Z,18.87
2022-08-19T03:29:14.321Z,18.87
2022-08-19T03:31:52.195Z,18.86
2022-08-19T03:34:29.333Z,18.86
2022-08-19T03:36:59.289Z,18.85
2022-08-19T03:39:27.053Z,18.84
2022-08-19T03:42:31.882Z,18.84
2022-08-19T03:44:46.109Z,18.85
2022-08-19T03:47:17.374Z,18.83
2022-08-19T03:49:45.203Z,18.84
2022-08-19T03:52:12.493Z,18.83
2022-08-19T03:54:39.867Z,18.82
2022-08-19T03:57:07.320Z,18.81
2022-08-19T03:59:36.533Z,18.81
2022-08-19T04:02:10.374Z,18.80
2022-08-19T04:04:39.752Z,18.81
2022-08-19T04:07:07.828Z,18.79
2022-08-19T04:09:37.897Z,18.79
2022-08-19T04:12:06.790Z,18.75
2022-08-19T04:14:34.976Z,18.73
2022-08-19T04:17:06.013Z,18.72
2022-08-19T04:19:33.876Z,18.71
2022-08-19T04:22:01.022Z,18.70
2022-08-19T04:24:28.923Z,18.70
2022-08-19T04:26:55.883Z,18.68
2022-08-19T04:29:26.504Z,18.66
2022-08-19T04:31:54.904Z,18.66
2022-08-19T04:34:24.670Z,18.63
2022-08-19T04:36:53.866Z,18.64
2022-08-19T04:39:24.503Z,18.63
2022-08-19T04:42:10.518Z,18.64
2022-08-19T04:44:38.958Z,18.67
2022-08-19T04:47:13.537Z,18.65
2022-08-19T04:49:40.478Z,18.66
2022-08-19T04:52:07.570Z,18.66
2022-08-19T04:54:38.497Z,18.67
2022-08-19T04:57:11.378Z,18.68
2022-08-19T04:59:40.517Z,18.68
2022-08-19T05:02:10.427Z,18.66
2022-08-19T05:04:40.470Z,18.69
2022-08-19T05:07:09.579Z,18.67
2022-08-19T05:09:57.593Z,18.71
2022-08-19T05:12:28.824Z,18.71
2022-08-19T05:14:58.242Z,18.66
2022-08-19T05:17:32.287Z,18.61
2022-08-19T05:20:21.129Z,18.66
2022-08-19T05:22:49.120Z,18.73
2022-08-19T05:25:20.453Z,18.78
2022-08-19T05:27:48.975Z,18.82
2022-08-19T05:30:16.744Z,18.86
2022-08-19T05:32:44.501Z,18.86
2022-08-19T05:35:12.906Z,18.89
2022-08-19T05:37:41.723Z,18.91
2022-08-19T05:40:10.180Z,18.91
2022-08-19T05:42:37.399Z,18.93
2022-08-19T05:45:05.702Z,18.95
2022-08-19T05:47:33.323Z,18.96
2022-08-19T05:50:04.941Z,18.97
2022-08-19T05:52:32.378Z,19.00
2022-08-19T05:55:00.432Z,19.02
2022-08-19T05:57:27.693Z,19.03
2022-08-19T05:59:58.244Z,19.04
2022-08-19T06:02:32.011Z,19.03
2022-08-19T06:04:59.224Z,19.03
2022-08-19T06:07:26.618Z,19.03
2022-08-19T06:09:59.840Z,19.00
2022-08-19T06:12:34.431Z,18.98
2022-08-19T06:15:04.834Z,18.83
2022-08-19T06:17:32.390Z,18.69
2022-08-19T06:20:00.286Z,18.56
2022-08-19T06:22:27.855Z,18.55
2022-08-19T06:24:55.877Z,18.61
2022-08-19T06:27:23.365Z,18.65
2022-08-19T06:29:50.965Z,18.69
2022-08-19T06:32:20.059Z,18.71
2022-08-19T06:34:47.832Z,18.74
2022-08-19T06:37:15.419Z,18.72
2022-08-19T06:39:44.384Z,18.74
2022-08-19T06:42:14.682Z,18.74
2022-08-19T06:44:48.082Z,18.74
2022-08-19T06:47:25.038Z,18.74
2022-08-19T06:50:05.351Z,18.73
2022-08-19T06:52:36.665Z,18.71
2022-08-19T06:55:05.870Z,18.72
2022-08-19T06:57:34.757Z,18.67
2022-08-19T07:00:02.508Z,18.62
2022-08-19T07:02:29.965Z,18.62
2022-08-19T07:04:59.317Z,18.61
2022-08-19T07:07:26.787Z,18.64
2022-08-19T07:09:59.958Z,18.65
2022-08-19T07:12:38.234Z,18.67
2022-08-19T07:15:06.513Z,18.67
2022-08-19T07:17:34.429Z,18.69
2022-08-19T07:20:06.831Z,18.68
2022-08-19T07:22:41.965Z,18.56
2022-08-19T07:25:11.423Z,18.53
2022-08-19T07:27:39.577Z,18.57
2022-08-19T07:30:12.072Z,18.58
2022-08-19T07:32:40.267Z,18.54
2022-08-19T07:35:08.313Z,18.43
2022-08-19T07:37:39.349Z,18.40
2022-08-19T07:40:09.617Z,18.34
2022-08-19T07:42:41.779Z,18.37
2022-08-19T07:45:10.461Z,18.45
2022-08-19T07:47:49.995Z,18.49
2022-08-19T07:50:21.826Z,18.52
2022-08-19T07:52:52.598Z,18.54
2022-08-19T07:55:42.684Z,18.46
2022-08-19T07:58:15.569Z,18.50
2022-08-19T08:00:52.515Z,18.51
2022-08-19T08:03:46.878Z,18.53
2022-08-19T08:06:34.761Z,18.59
2022-08-19T08:09:12.755Z,18.64
2022-08-19T08:11:52.680Z,18.67
2022-08-19T08:14:35.280Z,18.70
2022-08-19T08:17:03.998Z,18.76
2022-08-19T08:19:39.609Z,18.77
2022-08-19T08:22:08.182Z,18.72
2022-08-19T08:24:37.871Z,18.70
2022-08-19T08:27:11.414Z,18.66
2022-08-19T08:29:43.211Z,18.60
2022-08-19T08:32:14.894Z,18.57
2022-08-19T08:34:44.604Z,18.54
2022-08-19T08:37:16.702Z,18.51
2022-08-19T08:39:45.111Z,18.46
2022-08-19T08:42:17.720Z,18.43
2022-08-19T08:45:16.635Z,18.39
2022-08-19T08:47:50.452Z,18.38
2022-08-19T08:50:41.537Z,18.36
2022-08-19T08:53:10.376Z,18.36
2022-08-19T08:55:38.119Z,18.33
2022-08-19T08:58:07.420Z,18.32
2022-08-19T09:00:39.185Z,18.38
2022-08-19T09:03:27.973Z,18.36
2022-08-19T09:06:12.092Z,18.35
2022-08-19T09:09:15.209Z,18.41
2022-08-19T09:11:52.255Z,18.44
2022-08-19T09:14:50.857Z,18.46
2022-08-19T09:17:21.153Z,18.47
2022-08-19T09:19:54.197Z,18.50
2022-08-19T09:22:25.953Z,18.52
2022-08-19T09:24:55.333Z,18.54
2022-08-19T09:27:41.946Z,18.61
2022-08-19T09:30:14.190Z,18.61
2022-08-19T09:32:43.158Z,18.66
2022-08-19T09:35:10.642Z,18.73
2022-08-19T09:37:40.377Z,18.80
2022-08-19T09:40:09.222Z,18.84
2022-08-19T09:42:39.257Z,18.89
2022-08-19T09:45:22.523Z,18.97
2022-08-19T09:47:54.388Z,19.02
2022-08-19T09:50:23.709Z,19.08
2022-08-19T09:52:54.053Z,19.08
2022-08-19T09:55:31.202Z,19.07
2022-08-19T09:58:03.093Z,19.08
2022-08-19T10:00:32.175Z,19.05
2022-08-19T10:02:59.717Z,19.06
2022-08-19T10:05:48.447Z,19.05
2022-08-19T10:08:22.243Z,19.05
2022-08-19T10:10:55.216Z,19.09
2022-08-19T10:13:27.563Z,19.16
2022-08-19T10:15:58.477Z,19.20
2022-08-19T10:18:27.230Z,19.25
2022-08-19T10:21:13.658Z,19.30
2022-08-19T10:23:48.326Z,19.32
2022-08-19T10:26:20.122Z,19.35
2022-08-19T10:28:49.101Z,19.38
2022-08-19T10:32:00.608Z,19.42
2022-08-19T10:34:27.069Z,19.44
2022-08-19T10:37:00.806Z,19.48
2022-08-19T10:39:35.439Z,19.50
2022-08-19T10:42:11.990Z,19.50
2022-08-19T10:44:39.846Z,19.53
2022-08-19T10:47:17.902Z,19.53
2022-08-19T10:50:15.090Z,19.54
2022-08-19T10:52:49.561Z,19.54
2022-08-19T10:55:40.501Z,19.56
2022-08-19T10:58:16.341Z,19.57
2022-08-19T11:00:44.819Z,19.57
2022-08-19T11:03:12.279Z,19.58
2022-08-19T11:05:40.799Z,19.59
2022-08-19T11:08:21.194Z,19.58
2022-08-19T11:10:50.527Z,19.59
2022-08-19T11:13:18.003Z,19.60
2022-08-19T11:15:47.073Z,19.58
2022-08-19T11:18:14.662Z,19.59
2022-08-19T11:20:41.808Z,19.57
2022-08-19T11:23:08.985Z,19.57
2022-08-19T11:25:36.617Z,19.56
2022-08-19T11:28:04.226Z,19.57
2022-08-19T11:30:31.239Z,19.57
2022-08-19T11:32:58.866Z,19.57
2022-08-19T11:35:25.928Z,19.57
2022-08-19T11:37:53.544Z,19.57
2022-08-19T11:40:20.840Z,19.58
2022-08-19T11:42:57.795Z,19.58
2022-08-19T11:45:29.337Z,19.60
2022-08-19T11:47:57.337Z,19.60
2022-08-19T11:50:25.975Z,19.60
2022-08-19T11:52:57.352Z,19.60
2022-08-19T11:55:24.953Z,19.62
2022-08-19T11:57:52.572Z,19.60
2022-08-19T12:00:19.961Z,19.59
2022-08-19T12:02:47.047Z,19.59
2022-08-19T12:05:14.232Z,19.60
2022-08-19T12:07:42.747Z,19.60
2022-08-19T12:10:10.642Z,19.61
2022-08-19T12:12:43.780Z,19.63
2022-08-19T12:15:13.423Z,19.64
2022-08-19T12:17:41.536Z,19.65
2022-08-19T12:20:12.172Z,19.66
2022-08-19T12:22:39.412Z,19.66
2022-08-19T12:25:07.201Z,19.70
2022-08-19T12:27:40.639Z,19.70
2022-08-19T12:30:12.434Z,19.71
2022-08-19T12:32:39.922Z,19.72
2022-08-19T12:35:10.405Z,19.74
2022-08-19T12:37:38.092Z,19.75
2022-08-19T12:40:06.599Z,19.78
2022-08-19T12:42:33.852Z,19.76
2022-08-19T12:45:00.938Z,19.78
2022-08-19T12:47:28.498Z,19.80
2022-08-19T12:49:56.230Z,19.79
2022-08-19T12:52:26.179Z,19.78
2022-08-19T12:54:55.687Z,19.76
2022-08-19T12:57:32.286Z,19.77
2022-08-19T13:00:05.282Z,19.76
2022-08-19T13:02:38.899Z,19.76
2022-08-19T13:05:10.276Z,19.75
2022-08-19T13:07:39.108Z,19.77
2022-08-19T13:10:13.163Z,19.77
2022-08-19T13:12:40.631Z,19.78
2022-08-19T13:15:11.107Z,19.76
2022-08-19T13:17:39.475Z,19.73
2022-08-19T13:20:09.383Z,19.75
2022-08-19T13:22:37.315Z,19.76
2022-08-19T13:25:06.667Z,19.78
2022-08-19T13:27:34.137Z,19.80
2022-08-19T13:30:20.843Z,19.80
2022-08-19T13:33:06.571Z,19.81
2022-08-19T13:35:33.682Z,19.84
2022-08-19T13:38:06.430Z,19.88
2022-08-19T13:40:39.887Z,19.91
2022-08-19T13:43:17.786Z,19.90
2022-08-19T13:45:55.068Z,19.94
2022-08-19T13:48:22.677Z,19.98
2022-08-19T13:50:49.935Z,19.98
2022-08-19T13:53:18.188Z,19.93
2022-08-19T13:55:45.839Z,19.90
2022-08-19T13:58:13.542Z,19.90
2022-08-19T14:00:43.998Z,19.90
2022-08-19T14:03:12.426Z,19.94
2022-08-19T14:05:40.185Z,19.96
2022-08-19T14:08:07.554Z,19.98
2022-08-19T14:10:36.750Z,19.99
2022-08-19T14:13:05.147Z,20.03
2022-08-19T14:15:32.841Z,20.03
2022-08-19T14:18:00.802Z,20.06
2022-08-19T14:20:29.385Z,20.07
2022-08-19T14:22:57.279Z,20.07
2022-08-19T14:25:29.983Z,20.05
2022-08-19T14:27:58.054Z,20.07
2022-08-19T14:30:31.018Z,20.03
2022-08-19T14:32:59.672Z,20.01
2022-08-19T14:35:28.148Z,20.01
2022-08-19T14:37:57.090Z,19.97
2022-08-19T14:40:27.377Z,19.90
2022-08-19T14:43:00.532Z,19.87
2022-08-19T14:45:31.577Z,19.83
2022-08-19T14:48:00.631Z,19.78
2022-08-19T14:50:28.860Z,19.76
2022-08-19T14:53:05.309Z,19.78
2022-08-19T14:55:44.782Z,19.81
2022-08-19T14:58:29.599Z,19.83
2022-08-19T15:00:59.636Z,19.85
2022-08-19T15:03:27.246Z,19.86
2022-08-19T15:05:54.704Z,19.86
2022-08-19T15:08:24.006Z,19.85
2022-08-19T15:10:51.167Z,19.86
2022-08-19T15:13:19.043Z,19.85
2022-08-19T15:15:46.837Z,19.87
2022-08-19T15:18:14.432Z,19.87
2022-08-19T15:20:50.666Z,19.85
2022-08-19T15:23:20.781Z,19.82
2022-08-19T15:25:48.223Z,19.81
2022-08-19T15:28:17.694Z,19.80
2022-08-19T15:30:45.030Z,19.77
2022-08-19T15:33:16.846Z,19.73
2022-08-19T15:35:44.931Z,19.73
2022-08-19T15:38:14.233Z,19.73
2022-08-19T15:40:43.219Z,19.70
2022-08-19T15:43:10.547Z,19.72
2022-08-19T15:45:37.997Z,19.73
2022-08-19T15:48:05.858Z,19.72
2022-08-19T15:50:33.422Z,19.69
2022-08-19T15:53:06.326Z,19.67
2022-08-19T15:55:37.303Z,19.65
2022-08-19T15:58:28.534Z,19.62
2022-08-19T16:01:21.308Z,19.59
2022-08-19T16:04:13.725Z,19.62
2022-08-19T16:06:44.556Z,19.60
2022-08-19T16:09:11.723Z,19.61
2022-08-19T16:11:39.647Z,19.59
2022-08-19T16:14:09.697Z,19.58
2022-08-19T16:16:38.224Z,19.54
2022-08-19T16:19:10.429Z,19.57
2022-08-19T16:21:41.540Z,19.59
2022-08-19T16:24:12.438Z,19.56
2022-08-19T16:26:40.727Z,19.54
2022-08-19T16:29:12.013Z,19.56
2022-08-19T16:31:41.871Z,19.53
2022-08-19T16:34:09.191Z,19.54
2022-08-19T16:36:36.758Z,19.51
2022-08-19T16:39:04.356Z,19.47
2022-08-19T16:41:31.520Z,19.47
2022-08-19T16:43:58.946Z,19.44
2022-08-19T16:46:27.833Z,19.40
2022-08-19T16:48:55.672Z,19.37
2022-08-19T16:51:23.330Z,19.33
2022-08-19T16:53:53.413Z,19.34
2022-08-19T16:56:21.549Z,19.33
2022-08-19T16:58:50.801Z,19.30
2022-08-19T17:01:18.988Z,19.26
2022-08-19T17:03:46.606Z,19.18
2022-08-19T17:06:18.939Z,19.17
2022-08-19T17:08:52.497Z,19.11
2022-08-19T17:11:21.424Z,19.10
2022-08-19T17:13:50.600Z,19.17
2022-08-19T17:16:19.594Z,19.21
2022-08-19T17:18:46.673Z,19.27
2022-08-19T17:21:13.977Z,19.30
2022-08-19T17:23:43.437Z,19.33
2022-08-19T17:26:17.966Z,19.35
2022-08-19T17:28:50.081Z,19.37
2022-08-19T17:31:23.604Z,19.41
2022-08-19T17:33:52.146Z,19.41
2022-08-19T17:36:24.289Z,19.43
2022-08-19T17:38:53.657Z,19.46
2022-08-19T17:41:20.949Z,19.47
2022-08-19T17:43:48.092Z,19.50
2022-08-19T17:46:18.947Z,19.51
2022-08-19T17:48:52.074Z,19.52
2022-08-19T17:51:24.507Z,19.55
2022-08-19T17:53:54.191Z,19.57
2022-08-19T17:56:22.515Z,19.60
2022-08-19T17:58:57.819Z,19.56
2022-08-19T18:01:39.022Z,19.53
2022-08-19T18:04:19.045Z,19.52
2022-08-19T18:06:53.036Z,19.55
2022-08-19T18:09:25.520Z,19.59
2022-08-19T18:11:57.319Z,19.60
2022-08-19T18:14:33.805Z,19.59
2022-08-19T18:17:10.440Z,19.60
2022-08-19T18:19:41.460Z,19.62
2022-08-19T18:22:30.123Z,19.62
2022-08-19T18:24:58.536Z,19.63
2022-08-19T18:27:28.180Z,19.62
2022-08-19T18:29:59.990Z,19.58
2022-08-19T18:32:38.585Z,19.56
2022-08-19T18:35:11.575Z,19.60
2022-08-19T18:37:40.665Z,19.63
2022-08-19T18:40:28.187Z,19.64
2022-08-19T18:43:14.189Z,19.65
2022-08-19T18:46:01.160Z,19.67
2022-08-19T18:48:47.011Z,19.66
2022-08-19T18:51:16.696Z,19.68
2022-08-19T18:53:46.873Z,19.68
2022-08-19T18:56:20.507Z,19.68
2022-08-19T18:58:47.719Z,19.69
2022-08-19T19:01:20.304Z,19.72
2022-08-19T19:03:50.845Z,19.73
2022-08-19T19:06:22.762Z,19.74
2022-08-19T19:08:52.127Z,19.77
2022-08-19T19:11:26.007Z,19.79
2022-08-19T19:13:54.021Z,19.83
2022-08-19T19:16:24.637Z,19.85
2022-08-19T19:18:53.115Z,19.85
2022-08-19T19:21:23.244Z,19.85
2022-08-19T19:23:51.236Z,19.87
2022-08-19T19:26:18.627Z,19.89
2022-08-19T19:28:48.640Z,19.91
2022-08-19T19:31:26.969Z,19.93
2022-08-19T19:33:55.802Z,19.84
2022-08-19T19:36:23.675Z,19.64
2022-08-19T19:38:50.889Z,19.51
2022-08-19T19:41:25.005Z,19.43
2022-08-19T19:44:29.941Z,19.31
2022-08-19T19:46:46.448Z,19.27
2022-08-19T19:49:14.137Z,19.29
2022-08-19T19:51:43.394Z,19.26
2022-08-19T19:54:14.018Z,19.27
2022-08-19T19:56:45.704Z,19.17
2022-08-19T19:59:12.919Z,19.12
2022-08-19T20:01:41.017Z,19.06
2022-08-19T20:04:11.653Z,19.05
2022-08-19T20:06:38.898Z,18.99
2022-08-19T20:09:10.952Z,18.93
2022-08-19T20:11:40.459Z,19.02
2022-08-19T20:14:32.680Z,19.20
2022-08-19T20:17:00.832Z,19.29
2022-08-19T20:19:37.357Z,19.36
2022-08-19T20:22:06.709Z,19.39
2022-08-19T20:24:35.961Z,19.44
2022-08-19T20:27:05.319Z,19.48
2022-08-19T20:29:39.609Z,19.50
2022-08-19T20:32:10.513Z,19.51
2022-08-19T20:34:38.924Z,19.55
2022-08-19T20:37:07.558Z,19.63
2022-08-19T20:39:36.566Z,19.67
2022-08-19T20:42:04.269Z,19.70
2022-08-19T20:44:31.350Z,19.76
2022-08-19T20:47:03.646Z,19.79
2022-08-19T20:49:32.320Z,19.82
2022-08-19T20:52:04.203Z,19.85
2022-08-19T20:54:32.385Z,19.90
2022-08-19T20:56:59.957Z,19.91
2022-08-19T20:59:27.595Z,19.92
2022-08-19T21:01:55.031Z,19.91
2022-08-19T21:04:23.051Z,19.90
2022-08-19T21:06:51.416Z,19.91
2022-08-19T21:09:19.677Z,19.92
2022-08-19T21:11:48.263Z,19.91
2022-08-19T21:14:16.535Z,19.92
2022-08-19T21:16:43.959Z,19.95
2022-08-19T21:19:11.561Z,19.92
2022-08-19T21:21:38.876Z,19.91
2022-08-19T21:24:06.418Z,19.92
2022-08-19T21:26:36.639Z,19.92
2022-08-19T21:29:04.057Z,19.94
2022-08-19T21:31:35.563Z,19.94
2022-08-19T21:34:02.992Z,19.98
2022-08-19T21:36:30.540Z,19.98
2022-08-19T21:38:58.754Z,19.95
2022-08-19T21:41:27.734Z,19.94
2022-08-19T21:43:55.426Z,19.94
2022-08-19T21:46:23.416Z,19.96
2022-08-19T21:48:52.174Z,19.96
2022-08-19T21:51:20.124Z,19.95
2022-08-19T21:53:49.223Z,19.92
2022-08-19T21:56:21.771Z,19.90
2022-08-19T21:58:50.012Z,19.87
2022-08-19T22:01:17.544Z,19.87
2022-08-19T22:03:45.766Z,19.88
2022-08-19T22:06:12.956Z,19.91
2022-08-19T22:08:42.452Z,19.90
2022-08-19T22:11:09.812Z,19.91
2022-08-19T22:13:40.763Z,19.87
2022-08-19T22:16:09.172Z,19.84
2022-08-19T22:18:36.760Z,19.82
2022-08-19T22:21:11.225Z,19.82
2022-08-19T22:23:40.199Z,19.80
2022-08-19T22:26:07.618Z,19.76
2022-08-19T22:28:44.147Z,19.74
2022-08-19T22:31:13.686Z,19.73
2022-08-19T22:33:41.974Z,19.70
2022-08-19T22:36:30.373Z,19.69
2022-08-19T22:39:00.599Z,19.69
2022-08-19T22:41:28.059Z,19.67
2022-08-19T22:43:55.383Z,19.67
2022-08-19T22:46:22.569Z,19.65
2022-08-19T22:49:00.827Z,19.62
2022-08-19T22:51:47.582Z,19.59
2022-08-19T22:54:15.096Z,19.57
2022-08-19T22:56:43.790Z,19.56
2022-08-19T22:59:11.354Z,19.55
2022-08-19T23:01:39.919Z,19.52
2022-08-19T23:04:07.408Z,19.51
2022-08-19T23:06:42.231Z,19.49
2022-08-19T23:09:10.857Z,19.48
2022-08-19T23:11:47.298Z,19.46
2022-08-19T23:14:16.072Z,19.45
2022-08-19T23:16:50.445Z,19.44
2022-08-19T23:19:19.429Z,19.41
2022-08-19T23:21:46.498Z,19.38
2022-08-19T23:24:13.881Z,19.39
2022-08-19T23:27:00.729Z,19.39
2022-08-19T23:29:48.018Z,19.36
2022-08-19T23:32:16.278Z,19.36
2022-08-19T23:34:44.825Z,19.34
2022-08-19T23:37:12.353Z,19.33
2022-08-19T23:39:39.463Z,19.33
2022-08-19T23:42:12.095Z,19.32
2022-08-19T23:44:52.150Z,19.30
2022-08-19T23:47:20.902Z,19.28
2022-08-19T23:49:48.948Z,19.27
2022-08-19T23:52:16.075Z,19.26
2022-08-19T23:54:43.974Z,19.25
2022-08-19T23:57:14.639Z,19.24
2022-08-19T23:59:43.162Z,19.23
